x

Monterey - 27nm Wnw Of Monterey, Ca (46042) Wave Buoy

2:50pm - Sat 27th Dec 2014 All times are PST. -8 hours from GMT.

  • Sig Wave height 5.2ft
  • Swell Direction
  • Peak Period 14s
  • Average Period 8s
  • Wind
    2mph
  • Sea Temp 60°f
  • Air Temp 55°f
  • Sea Pressure 1026.8mb
  • Monterey - 27nm Wnw Of Monterey, Ca
  • Monterey - 27nm Wnw Of Monterey, Ca

More Historic Weather Station data

Upgrade to MSW Pro to gain access to the past 30 days of data for over 8000 Wavebouys and Weather Stations around the globe.

Join Pro

Comparision Forecast

View Surf forecast
   
Sat 12/27 2:50pm 5ft 14s 8s 2
mph
1026.8mb 60f 55f
1:50pm 5.5ft 14s 8s 7 11 mph 1026.7mb 60f 53f
12:50pm 5.5ft 11s 7s 11 16 mph 1026.7mb 60f 53f
11:50am 5.5ft 9s 7s 11 13 mph 1027.7mb 59f 52f
10:50am 6ft 10s 7s 13 16 mph 1028.2mb 59f 52f
9:50am 6.5ft 8s 7s 16 18 mph 1027.9mb 59f 51f
8:50am 5.5ft 11s 7s 13 18 mph 1026.8mb 59f 52f
7:50am 6ft 9s 7s 16 20 mph 1025.7mb 59f 52f
6:50am 5.5ft 9s 7s 16 18 mph 1025.3mb 59f 52f
5:50am 5ft 9s 7s 13 16 mph 1025.1mb 59f 52f
4:50am 5.5ft 10s 7s 13 16 mph 1024.7mb 59f 53f
2:50am 5.5ft 10s 7s 9 11 mph 1024.9mb 59f 54f
1:50am 6ft 8s 8s 9 13 mph 1024.9mb 59f 54f
12:50am 5.5ft 11s 7s 9 13 mph 1024.8mb 59f 55f
Fri 12/26 11:50pm 5.5ft 12s 7s 13 18 mph 1024.5mb 59f 55f
10:50pm 6ft 11s 8s 9 11 mph 1024.3mb 59f 56f
9:50pm 6ft 10s 7s 7 9 mph 1024mb 59f 56f
8:50pm 6.5ft 9s 8s 9 11 mph 1023.3mb 60f 57f
7:50pm 7ft 11s 8s 7 9 mph 1023.1mb 60f 57f
6:50pm 7.5ft 9s 8s 4 9 mph 1022.9mb 60f 57f
5:50pm 8.5ft 10s 8s 4 7 mph 1021.8mb 60f 57f
4:50pm 8ft 9s 7s 13 16 mph 1021.7mb 60f 58f
3:50pm 9ft 11s 8s 16 18 mph 1021.4mb 60f 57f
2:50pm 9ft 11s 8s 13 18 mph 1021.2mb 60f 56f
1:50pm 9ft 10s 8s 18 22 mph 1021.2mb 60f 55f
12:50pm 9ft 11s 7s 20 25 mph 1021.3mb 60f 55f
11:50am 9.5ft 11s 7s 18 22 mph 1022.1mb 59f 55f
10:50am 9ft 11s 7s 20 25 mph 1022.7mb 59f 54f
9:50am 9.5ft 11s 7s 22 29 mph 1022.4mb 59f 54f
8:50am 9ft 10s 7s 25 31 mph 1021.2mb 59f 55f
7:50am 10.5ft 11s 7s 22 27 mph 1020.8mb 59f 55f
6:50am 9ft 11s 7s 22 25 mph 1020.5mb 59f 55f
5:50am 10ft 10s 8s 22 27 mph 1020mb 59f 55f
4:50am 10ft 11s 8s 20 27 mph 1019.6mb 59f 55f
3:50am 10ft 11s 8s 20 25 mph 1019.4mb 59f 55f
2:50am 11ft 10s 8s 20 25 mph 1019.2mb 59f 56f
1:50am 10ft 10s 8s 18 22 mph 1018.9mb 59f 56f
12:50am 11.5ft 13s 8s 20 25 mph 1018.5mb 60f 56f
Thu 12/25 11:50pm 12ft 11s 8s 22 27 mph 1018.9mb 60f 56f
10:50pm 12.5ft 11s 8s 20 25 mph 1019.5mb 60f 56f
9:50pm 12.5ft 11s 8s 22 29 mph 1019.2mb 60f 57f
8:50pm 12ft 11s 7s 27 31 mph 1018.9mb 60f 57f
7:50pm 12.5ft 15s 8s 27 31 mph 1019.1mb 60f 57f
6:50pm 12ft 11s 8s 25 29 mph 1018.9mb 60f 57f
5:50pm 12ft 11s 8s 25 29 mph 1018.5mb 60f 57f
4:50pm 13ft 11s 8s 27 34 mph 1017.9mb 60f 56f
3:50pm 12ft 10s 8s 27 31 mph 1017.7mb 60f 56f
2:50pm 12ft 11s 8s 25 31 mph 1017.6mb 60f 56f
1:50pm 13ft 11s 8s 27 34 mph 1017.6mb 60f 56f
12:50pm 14ft 12s 8s 25 29 mph 1018.2mb 60f 56f
11:50am 14ft 11s 8s 22 27 mph 1019.1mb 60f 56f
10:50am 15ft 11s 8s 25 29 mph 1019.4mb 60f 55f
9:50am 14ft 11s 8s 27 34 mph 1019.7mb 59f 55f
8:50am 15ft 14s 8s 29 34 mph 1019.5mb 59f 55f
7:50am 15ft 11s 8s 27 36 mph 1019.1mb 59f 56f
6:50am 15ft 11s 8s 29 36 mph 1018.9mb 59f 56f
5:50am 15ft 12s 8s 29 38 mph 1018mb 59f 55f
4:50am 16.5ft 12s 9s 27 34 mph 1018mb 60f 55f
3:50am 17.5ft 11s 9s 29 34 mph 1018.1mb 60f 55f
2:50am 17.5ft 11s 9s 29 34 mph 1018.1mb 60f 56f
1:50am 16.5ft 11s 8s 29 36 mph 1018mb 60f 56f
12:50am 18ft 11s 9s 34 40 mph 1017.8mb 60f 56f
Wed 12/24 11:50pm 15.5ft 11s 8s 34 40 mph 1017.5mb 60f 56f
10:50pm 19.5ft 11s 8s 36 45 mph 1017.5mb 60f 56f
9:50pm 17ft 10s 8s 38 47 mph 1016.6mb 60f 57f
8:50pm 16ft 10s 8s 34 43 mph 1016.4mb 60f 57f
7:50pm 14.5ft 8s 8s 36 45 mph 1016.7mb 60f 57f
6:50pm 12ft 16s 7s 36 45 mph 1016.7mb 60f 57f
5:50pm 12ft 15s 7s 36 43 mph 1016.3mb 61f 57f
4:50pm 10.5ft 16s 7s 34 40 mph 1016mb 61f 58f
3:50pm 8.5ft 16s 7s 27 34 mph 1016mb 61f 58f
2:50pm 9ft 13s 9s 27 38 mph 1015.8mb 61f 58f
1:50pm 7.5ft 16s 8s 13 18 mph 1016.4mb 61f 59f
12:50pm 8.5ft 16s 9s 13 18 mph 1017.3mb 61f 59f
11:50am 9ft 17s 9s 13 16 mph 1018.6mb 61f 59f
10:50am 9ft 16s 9s 20 25 mph 1020.1mb 61f 59f
9:50am 9ft 17s 9s 20 25 mph 1019.6mb 61f 59f
8:50am 9ft 14s 9s 16 20 mph 1018.7mb 61f 59f
7:50am 9.5ft 15s 10s 16 18 mph 1018.4mb 61f 58f
6:50am 9ft 15s 9s 13 16 mph 1018.7mb 61f 56f
5:50am 9.5ft 17s 9s 9 13 mph 1018.3mb 61f 56f
4:50am 8.5ft 17s 9s 13 16 mph 1018.4mb 61f 56f
2:50am 8ft 17s 9s 16 18 mph 1019.4mb 61f 57f
1:50am 9ft 16s 8s 16 20 mph 1019.5mb 61f 57f
12:50am 8.5ft 17s 9s 16 20 mph 1019.4mb 61f 57f
Tue 12/23 11:50pm 9ft 17s 9s 13 18 mph 1020.4mb 61f 57f